Time;durP1;ratioP1;P1;durP2;ratioP2;P2;SDS_P1;SDS_P2;PMS_P1;PMS_P2;Temp;Humidity;BMP_temperature;BMP_pressure;BME280_temperature;BME280_humidity;BME280_pressure;Samples;Min_cycle;Max_cycle;Signal;HPM_P1;HPM_P2
2023/08/18 00:02:01;;;;;;;9.65;9.00;;;;;;;23.46;56.44;92966.19;5089662;28;20231;-77
2023/08/18 00:04:26;;;;;;;10.18;9.50;;;;;;;23.45;55.96;92954.00;5092157;28;20210;-77
2023/08/18 00:06:52;;;;;;;9.35;8.30;;;;;;;23.45;56.41;92975.31;5091814;28;20231;-77
2023/08/18 00:09:17;;;;;;;9.55;8.82;;;;;;;23.32;57.30;92971.22;5092679;28;20188;-77
2023/08/18 00:11:42;;;;;;;8.48;7.88;;;;;;;23.33;56.68;92966.66;5092060;28;20232;-77
2023/08/18 00:14:08;;;;;;;10.30;9.60;;;;;;;23.06;57.17;92939.03;5092272;28;20199;-78
2023/08/18 00:16:33;;;;;;;9.43;8.57;;;;;;;23.30;56.35;92968.13;5091579;28;20192;-77
2023/08/18 00:18:58;;;;;;;9.38;8.75;;;;;;;23.28;56.84;92959.72;5092322;28;20215;-77
2023/08/18 00:21:24;;;;;;;9.00;8.40;;;;;;;23.16;56.96;92954.44;5091697;28;20187;-76
2023/08/18 00:23:49;;;;;;;9.63;8.82;;;;;;;23.05;56.92;92961.44;5091988;28;20207;-77
2023/08/18 00:26:14;;;;;;;11.55;9.68;;;;;;;23.03;57.48;92947.72;5091712;28;20194;-77
2023/08/18 00:28:40;;;;;;;10.02;9.20;;;;;;;23.05;57.73;92950.03;5089897;28;20935;-77
2023/08/18 00:31:05;;;;;;;11.38;9.57;;;;;;;23.04;56.14;92943.91;5092016;28;20192;-77
2023/08/18 00:33:31;;;;;;;10.25;9.45;;;;;;;23.17;56.57;92957.91;5091704;28;20219;-76
2023/08/18 00:35:56;;;;;;;10.15;9.45;;;;;;;23.14;56.79;92951.38;5091368;28;20184;-77
2023/08/18 00:38:21;;;;;;;9.05;8.45;;;;;;;23.07;57.21;92950.44;5091676;28;20221;-77
2023/08/18 00:40:47;;;;;;;9.63;8.70;;;;;;;23.13;56.17;92951.72;5091442;28;20217;-76
2023/08/18 00:43:12;;;;;;;9.23;8.52;;;;;;;23.04;56.32;92932.47;5091429;28;20221;-77
2023/08/18 00:45:38;;;;;;;9.73;9.13;;;;;;;23.14;56.69;92946.06;5091443;28;20183;-77
2023/08/18 00:48:03;;;;;;;10.07;9.18;;;;;;;23.12;56.36;92940.28;5091228;28;20237;-76
2023/08/18 00:50:30;;;;;;;9.98;9.05;;;;;;;23.18;56.49;92944.22;5091454;28;20214;-78
2023/08/18 00:52:57;;;;;;;9.23;8.63;;;;;;;23.16;56.50;92946.47;5091087;28;20249;-76
2023/08/18 00:55:23;;;;;;;8.70;8.00;;;;;;;23.22;55.41;92937.06;5090396;28;20195;-77
2023/08/18 00:57:49;;;;;;;9.10;8.18;;;;;;;23.25;55.66;92939.06;5091198;28;20250;-76
2023/08/18 01:00:15;;;;;;;9.18;8.45;;;;;;;23.13;55.86;92925.84;5091868;28;20662;-77
2023/08/18 01:02:41;;;;;;;10.70;9.77;;;;;;;23.30;55.54;92940.72;5078799;28;20227;-78
2023/08/18 01:05:06;;;;;;;9.73;9.13;;;;;;;23.14;56.08;92930.06;5105188;28;20185;-77
2023/08/18 01:07:32;;;;;;;10.38;9.48;;;;;;;23.26;56.62;92945.19;5085765;28;20219;-76
2023/08/18 01:09:57;;;;;;;10.43;9.63;;;;;;;23.22;56.78;92933.66;5096509;28;20187;-77
2023/08/18 01:12:40;;;;;;;9.57;8.80;;;;;;;23.24;57.32;92939.38;5090758;28;20223;-77
2023/08/18 01:15:14;;;;;;;10.13;9.40;;;;;;;23.23;57.63;92940.53;5088305;28;20266;-76
2023/08/18 01:17:54;;;;;;;10.20;9.40;;;;;;;23.16;57.86;92935.81;5100804;28;20227;-78
2023/08/18 01:20:22;;;;;;;9.25;8.48;;;;;;;23.32;57.19;92933.91;5091526;28;20247;-78
2023/08/18 01:22:55;;;;;;;10.70;9.70;;;;;;;23.57;56.22;92945.84;5090477;28;20219;-76
2023/08/18 01:25:21;;;;;;;9.85;9.15;;;;;;;23.48;56.97;92947.19;5078799;28;20206;-77
2023/08/18 01:27:46;;;;;;;10.23;9.48;;;;;;;23.39;57.90;92951.94;5090276;28;20245;-76
2023/08/18 01:30:13;;;;;;;8.95;8.35;;;;;;;23.03;59.94;92936.28;5083075;28;20184;-77
2023/08/18 01:32:57;;;;;;;9.35;8.55;;;;;;;22.83;61.42;92943.44;5089460;28;20254;-77
2023/08/18 01:35:27;;;;;;;8.88;8.27;;;;;;;22.64;62.23;92938.03;5081591;28;20186;-77
2023/08/18 01:37:55;;;;;;;9.85;9.13;;;;;;;22.49;63.09;92946.00;5090346;28;20220;-77
2023/08/18 01:40:24;;;;;;;9.90;9.10;;;;;;;22.30;64.03;92945.91;5090789;28;20258;-77
2023/08/18 01:42:51;;;;;;;10.52;9.57;;;;;;;22.26;64.39;92948.47;5090632;28;20224;-77
2023/08/18 01:45:16;;;;;;;11.02;10.13;;;;;;;22.06;65.14;92946.78;5090705;28;20175;-77
2023/08/18 01:47:41;;;;;;;15.95;10.45;;;;;;;21.83;65.63;92943.94;5089017;28;20214;-78
2023/08/18 01:50:08;;;;;;;11.32;10.10;;;;;;;21.64;66.56;92938.44;5090576;28;20196;-77
2023/08/18 01:52:33;;;;;;;11.25;10.45;;;;;;;21.62;65.91;92915.97;5090127;28;20213;-77
2023/08/18 01:54:58;;;;;;;9.65;8.88;;;;;;;21.63;66.15;92939.56;5089170;28;20186;-76
2023/08/18 01:57:24;;;;;;;10.75;10.05;;;;;;;21.57;66.86;92946.19;5090623;28;20795;-76
2023/08/18 01:59:49;;;;;;;10.20;9.30;;;;;;;21.71;66.31;92951.16;5100128;28;20207;-77
2023/08/18 02:02:14;;;;;;;12.05;11.10;;;;;;;21.51;66.14;92931.59;5092963;28;20222;-77
2023/08/18 02:04:40;;;;;;;10.20;9.50;;;;;;;21.72;65.22;92945.50;5090368;28;20325;-77
2023/08/18 02:07:05;;;;;;;10.80;10.00;;;;;;;21.71;65.45;92943.19;5089723;28;20291;-77
2023/08/18 02:09:31;;;;;;;10.30;9.52;;;;;;;21.72;65.77;92936.75;5099324;28;20188;-77
2023/08/18 02:11:56;;;;;;;9.50;8.90;;;;;;;21.69;66.54;92935.53;5092854;28;20219;-77
2023/08/18 02:14:22;;;;;;;10.43;9.52;;;;;;;21.60;67.17;92929.59;5090323;28;20195;-77
2023/08/18 02:16:48;;;;;;;10.55;9.57;;;;;;;21.63;65.80;92914.84;5087683;28;20228;-76
2023/08/18 02:19:14;;;;;;;10.15;9.35;;;;;;;21.66;65.69;92906.19;5090240;28;20190;-77
2023/08/18 02:21:39;;;;;;;10.77;9.98;;;;;;;21.71;65.54;92909.38;5089776;28;20191;-76
2023/08/18 02:24:04;;;;;;;11.02;10.23;;;;;;;21.87;64.26;92918.19;5090035;28;20275;-77
2023/08/18 02:26:30;;;;;;;11.00;10.00;;;;;;;21.76;63.74;92885.25;5089458;28;20700;-77
2023/08/18 02:28:55;;;;;;;10.00;9.20;;;;;;;22.14;62.85;92914.75;5087943;28;20191;-77
2023/08/18 02:31:21;;;;;;;9.93;9.23;;;;;;;22.12;62.80;92902.88;5090359;28;20186;-77
2023/08/18 02:33:46;;;;;;;9.93;9.13;;;;;;;22.18;62.47;92907.59;5089450;28;20218;-77
2023/08/18 02:36:12;;;;;;;10.35;9.38;;;;;;;22.27;62.40;92918.84;5091278;28;20182;-76
2023/08/18 02:38:38;;;;;;;12.23;10.05;;;;;;;22.21;62.76;92909.59;5088362;28;20325;-76
2023/08/18 02:41:04;;;;;;;10.25;9.55;;;;;;;22.24;62.69;92908.16;5089455;28;20191;-78
2023/08/18 02:43:29;;;;;;;10.35;9.65;;;;;;;22.26;62.36;92902.47;5089297;28;20226;-76
2023/08/18 02:45:56;;;;;;;11.77;10.65;;;;;;;22.33;62.41;92915.94;5089632;28;20308;-77
2023/08/18 02:48:25;;;;;;;11.32;10.35;;;;;;;22.35;62.21;92921.69;5089277;28;20222;-77
2023/08/18 02:51:01;;;;;;;10.93;9.90;;;;;;;22.14;63.27;92900.66;5087711;28;21179;-77
2023/08/18 02:53:26;;;;;;;11.52;10.52;;;;;;;22.28;63.46;92911.66;5089394;28;20236;-77
2023/08/18 02:55:54;;;;;;;10.63;9.93;;;;;;;22.30;63.48;92914.75;5089136;28;20278;-77
2023/08/18 02:58:19;;;;;;;12.15;10.82;;;;;;;22.28;63.13;92901.00;5072645;28;20283;-77
2023/08/18 03:00:44;;;;;;;10.07;9.48;;;;;;;22.26;63.80;92919.19;5069791;28;20214;-78
2023/08/18 03:03:10;;;;;;;11.02;10.05;;;;;;;22.52;63.04;92911.53;5083942;28;20227;-77
2023/08/18 03:05:37;;;;;;;10.73;10.02;;;;;;;22.35;63.62;92917.13;5089323;28;20193;-77
2023/08/18 03:08:02;;;;;;;10.75;9.95;;;;;;;22.35;63.82;92911.81;5088894;28;20219;-77
2023/08/18 03:10:28;;;;;;;11.75;10.93;;;;;;;22.33;64.27;92908.75;5089441;28;20246;-76
2023/08/18 03:12:53;;;;;;;11.05;10.15;;;;;;;22.28;64.44;92914.31;5076124;28;20224;-77
2023/08/18 03:15:19;;;;;;;10.98;10.15;;;;;;;22.35;64.19;92909.16;5069099;28;20188;-76
2023/08/18 03:17:44;;;;;;;11.20;10.35;;;;;;;22.32;64.79;92920.47;5068382;28;20228;-77
2023/08/18 03:20:09;;;;;;;12.60;11.40;;;;;;;22.32;63.39;92923.13;5068639;28;20179;-76
2023/08/18 03:22:35;;;;;;;12.30;10.35;;;;;;;22.05;64.19;92916.75;5068948;28;20240;-77
2023/08/18 03:25:02;;;;;;;11.07;10.23;;;;;;;21.86;66.32;92910.56;5068757;28;20215;-77
2023/08/18 03:27:27;;;;;;;10.50;9.80;;;;;;;21.66;67.66;92906.19;5068923;28;20236;-77
2023/08/18 03:29:55;;;;;;;10.35;9.55;;;;;;;21.63;68.47;92922.84;5063394;28;20206;-77
2023/08/18 03:32:22;;;;;;;10.52;9.73;;;;;;;21.48;69.13;92912.94;5069351;28;20221;-76
2023/08/18 03:34:47;;;;;;;11.70;10.80;;;;;;;21.52;69.31;92911.13;5068762;28;20207;-77
2023/08/18 03:37:12;;;;;;;11.57;10.77;;;;;;;21.66;69.16;92916.84;5068528;28;20224;-77
2023/08/18 03:39:38;;;;;;;11.00;10.13;;;;;;;21.52;70.14;92906.59;5068860;28;20219;-76
2023/08/18 03:42:03;;;;;;;13.20;12.10;;;;;;;21.56;71.59;92926.06;5080141;28;20221;-77
2023/08/18 03:44:29;;;;;;;12.77;11.43;;;;;;;21.51;72.09;92920.97;5090553;28;20217;-76
2023/08/18 03:46:56;;;;;;;10.75;9.85;;;;;;;21.37;71.42;92909.19;5091844;28;20225;-77
2023/08/18 03:49:22;;;;;;;12.65;11.45;;;;;;;21.30;72.11;92922.28;5068670;28;20218;-77
2023/08/18 03:51:47;;;;;;;11.65;10.75;;;;;;;21.42;72.61;92922.22;5067903;28;20235;-77
2023/08/18 03:54:12;;;;;;;11.18;10.43;;;;;;;21.53;71.56;92928.63;5068615;28;20193;-77
2023/08/18 03:56:38;;;;;;;11.32;10.27;;;;;;;21.42;70.90;92919.56;5058499;28;20187;-78
2023/08/18 03:59:03;;;;;;;11.20;10.40;;;;;;;21.14;70.91;92932.03;5066549;28;20195;-78
2023/08/18 04:01:28;;;;;;;11.30;10.30;;;;;;;21.21;70.86;92922.41;5071053;28;20183;-76
2023/08/18 04:03:58;;;;;;;12.38;11.18;;;;;;;21.03;71.36;92923.00;5092872;28;20221;-77
2023/08/18 04:06:24;;;;;;;10.73;9.93;;;;;;;21.33;71.85;92927.69;5092427;28;20246;-76
2023/08/18 04:09:15;;;;;;;12.88;11.73;;;;;;;21.47;72.54;92930.75;5092542;28;20191;-77
2023/08/18 04:11:41;;;;;;;12.77;11.35;;;;;;;21.43;71.97;92913.91;5088478;28;20194;-77
2023/08/18 04:14:06;;;;;;;12.77;10.90;;;;;;;21.64;72.03;92930.47;5072872;28;20182;-77
2023/08/18 04:16:32;;;;;;;13.10;11.73;;;;;;;21.60;73.18;92934.13;5071849;28;20195;-77
2023/08/18 04:18:58;;;;;;;12.98;11.80;;;;;;;21.67;74.02;92935.09;5072936;28;20183;-77
2023/08/18 04:21:27;;;;;;;11.35;10.27;;;;;;;21.54;73.27;92933.59;5071428;28;20179;-76
2023/08/18 04:23:52;;;;;;;11.02;10.15;;;;;;;21.61;73.16;92931.13;5061380;28;20206;-77
2023/08/18 04:26:18;;;;;;;11.80;10.60;;;;;;;21.59;72.85;92921.94;5071802;28;20200;-77
2023/08/18 04:28:44;;;;;;;12.18;11.18;;;;;;;21.75;72.44;92934.22;5071621;28;20206;-76
2023/08/18 04:31:11;;;;;;;13.57;12.35;;;;;;;21.86;72.43;92926.53;5071750;28;20240;-77
2023/08/18 04:33:36;;;;;;;12.30;11.30;;;;;;;21.96;72.64;92942.00;5090337;28;20227;-76
2023/08/18 04:36:03;;;;;;;12.77;11.63;;;;;;;21.93;73.20;92924.06;5090173;28;20215;-77
2023/08/18 04:38:28;;;;;;;13.00;11.60;;;;;;;21.94;72.93;92938.88;5092064;28;20234;-77
2023/08/18 04:41:01;;;;;;;12.10;11.15;;;;;;;22.00;72.80;92932.22;5091451;28;20205;-77
2023/08/18 04:43:29;;;;;;;11.73;10.80;;;;;;;22.14;72.65;92948.53;5091126;28;20250;-77
2023/08/18 04:45:55;;;;;;;11.98;10.98;;;;;;;22.27;71.87;92942.78;5091438;28;20176;-76
2023/08/18 04:48:21;;;;;;;12.60;11.60;;;;;;;22.37;71.73;92943.44;5091320;28;20216;-77
2023/08/18 04:50:47;;;;;;;11.52;10.52;;;;;;;22.43;71.03;92945.47;5091895;28;20189;-77
2023/08/18 04:53:12;;;;;;;11.98;10.95;;;;;;;22.64;70.05;92948.69;5090987;28;20234;-78
2023/08/18 04:55:39;;;;;;;11.75;10.82;;;;;;;22.67;66.92;92947.22;5091678;28;20193;-77
2023/08/18 04:58:04;;;;;;;12.10;10.95;;;;;;;22.56;66.30;92915.03;5090998;28;20294;-77
2023/08/18 05:00:29;;;;;;;11.27;10.38;;;;;;;22.89;65.51;92957.25;5092464;28;20194;-77
2023/08/18 05:02:55;;;;;;;10.80;10.00;;;;;;;22.92;64.60;92949.34;5091279;28;20235;-77
2023/08/18 05:05:21;;;;;;;10.70;9.70;;;;;;;23.02;64.25;92956.03;5091389;28;20186;-77
2023/08/18 05:07:46;;;;;;;10.55;9.57;;;;;;;22.97;64.31;92949.09;5090986;28;20235;-77
2023/08/18 05:10:12;;;;;;;11.35;10.48;;;;;;;23.02;63.84;92951.47;5089903;28;20214;-77
2023/08/18 05:12:38;;;;;;;10.93;9.85;;;;;;;23.07;64.10;92956.53;5080171;28;20223;-77
2023/08/18 05:15:04;;;;;;;9.82;9.13;;;;;;;23.22;63.67;92961.06;5069289;28;20259;-77
2023/08/18 05:17:29;;;;;;;10.45;9.75;;;;;;;23.32;63.14;92965.88;5070606;28;20232;-77
2023/08/18 05:19:55;;;;;;;11.15;10.35;;;;;;;23.23;63.24;92957.28;5070842;28;20190;-77
2023/08/18 05:22:24;;;;;;;12.10;9.95;;;;;;;23.37;63.22;92968.28;5070648;28;20287;-77
2023/08/18 05:24:49;;;;;;;11.00;10.30;;;;;;;23.35;63.23;92973.19;5070922;28;20215;-76
2023/08/18 05:27:15;;;;;;;10.90;10.10;;;;;;;23.34;63.46;92974.31;5070549;28;20280;-76
2023/08/18 05:29:43;;;;;;;10.75;9.70;;;;;;;23.35;63.81;92975.84;5070339;28;20869;-77
2023/08/18 05:32:10;;;;;;;12.52;10.43;;;;;;;23.41;63.76;92984.31;5070799;28;20251;-77
2023/08/18 05:34:35;;;;;;;11.52;10.50;;;;;;;23.32;63.64;92963.22;5069674;28;20196;-77
2023/08/18 05:37:00;;;;;;;11.27;10.48;;;;;;;23.29;63.62;92976.47;5074636;28;20211;-77
2023/08/18 05:39:27;;;;;;;10.40;9.55;;;;;;;23.54;62.57;92983.88;5070142;28;20196;-76
2023/08/18 05:41:52;;;;;;;10.52;9.77;;;;;;;23.63;61.78;92986.31;5079961;28;20232;-76
2023/08/18 05:44:18;;;;;;;11.57;10.52;;;;;;;23.75;61.83;92984.31;5075606;28;20304;-77
2023/08/18 05:46:43;;;;;;;10.98;10.10;;;;;;;23.88;61.79;92982.28;5088915;28;20235;-78
2023/08/18 05:49:10;;;;;;;11.02;10.25;;;;;;;23.96;61.75;92988.53;5073135;28;20192;-78
2023/08/18 05:51:35;;;;;;;10.82;10.13;;;;;;;24.11;61.89;92979.72;5063834;28;20189;-76
2023/08/18 05:54:03;;;;;;;11.23;10.32;;;;;;;24.91;59.24;92986.50;5103017;28;20197;-77
2023/08/18 05:56:29;;;;;;;10.57;9.77;;;;;;;26.40;54.41;92982.81;5089178;28;20208;-77
2023/08/18 05:58:54;;;;;;;11.00;10.25;;;;;;;26.11;54.49;92982.88;5090451;28;20210;-76
2023/08/18 06:01:19;;;;;;;11.38;10.40;;;;;;;26.31;53.82;92998.41;5090730;28;20182;-77
2023/08/18 06:03:45;;;;;;;9.90;8.70;;;;;;;26.20;54.01;92986.78;5089778;28;20240;-76
2023/08/18 06:06:10;;;;;;;9.85;9.07;;;;;;;26.17;53.71;92989.44;5090647;28;20185;-77
2023/08/18 06:08:35;;;;;;;10.15;9.32;;;;;;;29.55;45.53;93004.34;5069944;28;20208;-77
2023/08/18 06:11:01;;;;;;;10.05;9.35;;;;;;;32.70;38.14;93006.03;5069996;28;20253;-77
2023/08/18 06:13:26;;;;;;;9.90;9.13;;;;;;;35.61;32.16;93021.56;5069448;28;20227;-77
2023/08/18 06:15:54;;;;;;;8.95;8.35;;;;;;;35.74;31.85;93024.34;5069304;28;20193;-77
2023/08/18 06:18:20;;;;;;;9.10;8.60;;;;;;;34.69;31.97;93002.31;5069430;28;20230;-79
2023/08/18 06:20:46;;;;;;;11.02;9.25;;;;;;;32.93;35.51;93023.53;5069867;28;20284;-77
2023/08/18 06:23:11;;;;;;;9.73;9.13;;;;;;;30.43;40.72;93008.75;5069364;28;20229;-77
2023/08/18 06:25:36;;;;;;;10.57;9.63;;;;;;;28.63;45.45;93005.41;5069023;28;20210;-77
2023/08/18 06:28:02;;;;;;;10.57;9.85;;;;;;;27.46;49.21;92989.88;5083244;28;20220;-77
2023/08/18 06:30:27;;;;;;;11.18;10.43;;;;;;;26.94;51.38;92994.81;5089811;28;20200;-77
2023/08/18 06:32:53;;;;;;;10.25;9.23;;;;;;;26.54;52.24;92996.34;5089834;28;20262;-77
2023/08/18 06:35:18;;;;;;;9.52;8.63;;;;;;;26.48;52.41;93005.84;5090907;28;20184;-77
2023/08/18 06:37:44;;;;;;;10.07;9.27;;;;;;;26.38;52.72;93003.81;5088102;28;20224;-77
2023/08/18 06:40:09;;;;;;;10.27;9.57;;;;;;;26.46;53.24;93002.75;5089894;28;20181;-78
2023/08/18 06:42:35;;;;;;;10.27;9.27;;;;;;;26.73;51.97;93004.22;5089202;28;20505;-77
2023/08/18 06:45:00;;;;;;;10.52;9.50;;;;;;;26.61;51.10;93012.50;5089778;28;20290;-77
2023/08/18 06:47:26;;;;;;;9.65;8.85;;;;;;;26.61;51.15;92995.66;5088164;28;20223;-77
2023/08/18 06:49:51;;;;;;;9.40;8.63;;;;;;;26.42;50.98;92985.91;5089396;28;20210;-79
2023/08/18 06:52:16;;;;;;;9.85;8.98;;;;;;;26.81;51.32;93006.94;5088422;28;20255;-77
2023/08/18 06:54:42;;;;;;;9.40;8.52;;;;;;;27.10;50.81;93006.06;5089528;28;20184;-77
2023/08/18 06:57:07;;;;;;;10.50;9.63;;;;;;;27.27;48.08;93014.25;5088660;28;20224;-77
2023/08/18 06:59:33;;;;;;;8.90;8.07;;;;;;;27.09;49.44;93004.50;5089709;28;20244;-78
2023/08/18 07:01:58;;;;;;;9.90;9.25;;;;;;;27.19;47.24;93011.88;5089198;28;20224;-77
2023/08/18 07:04:23;;;;;;;10.15;9.25;;;;;;;27.20;48.00;93003.47;5089322;28;20204;-77
2023/08/18 07:06:49;;;;;;;10.73;9.30;;;;;;;27.16;48.23;93016.06;5088995;28;20239;-77
2023/08/18 07:09:14;;;;;;;9.52;8.82;;;;;;;27.09;48.63;92999.94;5089594;28;20203;-76
2023/08/18 07:11:39;;;;;;;9.32;8.73;;;;;;;27.16;48.25;92988.50;5088653;28;20292;-78
2023/08/18 07:14:05;;;;;;;9.77;8.73;;;;;;;27.01;49.30;92971.53;5088417;28;20193;-77
2023/08/18 07:16:30;;;;;;;10.15;9.35;;;;;;;27.52;46.48;93003.72;5088747;28;20293;-77
2023/08/18 07:18:56;;;;;;;9.80;9.00;;;;;;;27.35;47.23;92994.41;5089570;28;20190;-76
2023/08/18 07:21:21;;;;;;;9.93;9.18;;;;;;;27.64;46.67;92981.94;5089265;28;20189;-77
2023/08/18 07:23:47;;;;;;;9.38;8.65;;;;;;;27.78;45.74;93009.63;5088809;28;20731;-77
2023/08/18 07:26:12;;;;;;;10.27;9.32;;;;;;;27.84;45.19;93008.13;5087625;28;20196;-77
2023/08/18 07:28:37;;;;;;;9.38;8.57;;;;;;;27.83;45.01;93003.16;5088727;28;20208;-78
2023/08/18 07:31:03;;;;;;;10.98;9.10;;;;;;;27.75;45.07;93005.00;5084500;28;20185;-78
2023/08/18 07:33:30;;;;;;;8.88;8.27;;;;;;;27.87;43.92;93010.09;5089258;28;20231;-78
2023/08/18 07:35:56;;;;;;;10.48;9.50;;;;;;;27.80;43.53;93012.69;5088814;28;20710;-77
2023/08/18 07:38:21;;;;;;;9.10;8.25;;;;;;;27.72;43.64;93007.69;5092626;28;20228;-78
2023/08/18 07:40:46;;;;;;;8.95;8.30;;;;;;;27.79;44.04;93011.19;5091727;28;20192;-77
2023/08/18 07:43:12;;;;;;;9.00;8.30;;;;;;;27.93;43.75;93010.50;5079562;28;20258;-77
2023/08/18 07:45:37;;;;;;;9.93;9.13;;;;;;;27.87;43.47;93004.72;5093985;28;20197;-77
2023/08/18 07:48:03;;;;;;;9.40;8.70;;;;;;;27.90;43.96;93020.09;5093087;28;20215;-78
2023/08/18 07:50:28;;;;;;;9.35;8.57;;;;;;;27.84;43.96;93018.09;5104968;28;20188;-77
2023/08/18 07:52:54;;;;;;;9.80;9.00;;;;;;;27.72;46.41;93015.75;5091792;28;20224;-77
2023/08/18 07:55:21;;;;;;;9.40;8.70;;;;;;;28.07;43.40;93021.31;5092732;28;20188;-77
2023/08/18 07:57:46;;;;;;;8.98;8.35;;;;;;;28.24;42.67;93021.41;5092213;28;20250;-77
2023/08/18 08:00:19;;;;;;;10.07;9.18;;;;;;;27.73;43.62;93007.31;5092673;28;20226;-79
2023/08/18 08:02:45;;;;;;;9.68;9.00;;;;;;;27.74;44.81;93010.75;5092241;28;20304;-77
2023/08/18 08:05:10;;;;;;;10.20;9.50;;;;;;;28.03;45.46;93023.22;5092418;28;20466;-78
2023/08/18 08:07:36;;;;;;;9.77;8.98;;;;;;;27.76;45.31;93017.28;5099272;28;20224;-77
2023/08/18 08:10:03;;;;;;;10.40;9.45;;;;;;;28.07;44.33;93015.94;5098727;28;20202;-78
2023/08/18 08:12:34;;;;;;;10.13;9.13;;;;;;;28.13;45.06;93009.84;5095302;28;20296;-77
2023/08/18 08:15:03;;;;;;;9.70;8.88;;;;;;;28.30;44.21;93007.59;5092742;28;20287;-77
2023/08/18 08:17:30;;;;;;;9.65;9.00;;;;;;;28.21;43.17;93005.25;5091648;28;20232;-77
2023/08/18 08:19:56;;;;;;;9.27;8.68;;;;;;;28.28;43.71;93007.97;5091578;28;20216;-77
2023/08/18 08:22:23;;;;;;;8.43;7.93;;;;;;;28.07;43.21;93000.59;5091953;28;20216;-78
2023/08/18 08:24:50;;;;;;;9.10;8.45;;;;;;;28.20;44.02;93006.41;5104582;28;20317;-78
2023/08/18 08:27:16;;;;;;;9.60;8.70;;;;;;;28.36;42.75;93006.84;5090566;28;20220;-76
2023/08/18 08:29:41;;;;;;;9.00;8.38;;;;;;;28.43;42.69;93006.09;5091987;28;20192;-78
2023/08/18 08:32:07;;;;;;;9.07;8.40;;;;;;;28.28;42.48;93000.69;5091925;28;20216;-78
2023/08/18 08:34:32;;;;;;;8.70;8.10;;;;;;;28.03;43.11;92994.44;5092021;28;20189;-78
2023/08/18 08:36:58;;;;;;;9.55;8.43;;;;;;;28.31;43.51;93001.84;5091476;28;20224;-77
2023/08/18 08:39:23;;;;;;;8.50;7.85;;;;;;;28.53;40.55;93000.78;5092357;28;20188;-77
2023/08/18 08:41:48;;;;;;;8.57;8.00;;;;;;;28.75;39.92;93001.63;5091367;28;20247;-77
2023/08/18 08:44:14;;;;;;;10.35;8.30;;;;;;;28.50;40.83;92998.09;5091793;28;20210;-78
2023/08/18 08:46:40;;;;;;;8.75;7.90;;;;;;;28.42;42.08;92986.53;5091595;28;20256;-77
2023/08/18 08:49:07;;;;;;;8.80;8.20;;;;;;;28.63;39.78;92989.28;5077146;28;20188;-77
2023/08/18 08:51:37;;;;;;;8.27;7.50;;;;;;;28.62;40.66;93003.88;5083355;28;20398;-78
2023/08/18 08:54:06;;;;;;;8.40;7.80;;;;;;;28.71;39.79;93001.59;5090625;28;20208;-77
2023/08/18 08:56:34;;;;;;;9.15;8.18;;;;;;;28.51;40.49;92999.63;5101145;28;20181;-78
2023/08/18 08:59:00;;;;;;;8.70;7.97;;;;;;;28.72;39.79;93005.06;5091703;28;20189;-77
2023/08/18 09:01:26;;;;;;;8.60;8.00;;;;;;;28.62;39.78;92987.75;5090762;28;20189;-77
2023/08/18 09:03:52;;;;;;;8.65;8.05;;;;;;;28.61;40.60;93001.59;5071265;28;20267;-78
2023/08/18 09:06:17;;;;;;;8.60;8.10;;;;;;;28.91;39.76;93002.78;5071475;28;20192;-78
2023/08/18 09:08:43;;;;;;;8.20;7.60;;;;;;;28.91;39.30;92994.72;5070900;28;20224;-78
2023/08/18 09:11:09;;;;;;;8.25;7.55;;;;;;;28.87;39.68;92993.94;5071225;28;20182;-77
2023/08/18 09:13:35;;;;;;;8.82;8.27;;;;;;;28.76;40.51;92987.00;5089355;28;20284;-78
2023/08/18 09:16:04;;;;;;;10.32;9.43;;;;;;;28.93;39.87;92987.03;5091126;28;20196;-77
2023/08/18 09:18:32;;;;;;;7.97;7.50;;;;;;;28.86;40.03;92997.78;5090679;28;20227;-78
2023/08/18 09:20:58;;;;;;;8.70;8.07;;;;;;;28.83;40.36;92993.16;5091060;28;20220;-78
2023/08/18 09:23:26;;;;;;;8.38;7.68;;;;;;;28.92;40.13;92998.94;5090415;28;20216;-78
2023/08/18 09:25:51;;;;;;;8.63;7.95;;;;;;;28.90;40.08;92960.16;5090486;28;20199;-77
2023/08/18 09:28:17;;;;;;;7.85;7.25;;;;;;;29.04;38.48;92977.06;5090051;28;20212;-76
2023/08/18 09:30:43;;;;;;;8.50;7.80;;;;;;;28.92;39.47;92998.19;5090993;28;20178;-78
2023/08/18 09:33:08;;;;;;;8.07;7.40;;;;;;;29.12;39.36;92997.44;5090418;28;20284;-78
2023/08/18 09:35:34;;;;;;;8.10;7.50;;;;;;;28.88;39.02;92990.09;5090871;28;20180;-78
2023/08/18 09:38:01;;;;;;;8.80;8.10;;;;;;;28.88;39.22;92992.78;5089783;28;20225;-77
2023/08/18 09:40:27;;;;;;;8.63;7.75;;;;;;;28.76;39.00;92997.75;5090700;28;20197;-76
2023/08/18 09:42:52;;;;;;;9.70;7.95;;;;;;;28.74;39.94;93000.84;5097334;28;20361;-77
2023/08/18 09:45:22;;;;;;;8.52;7.82;;;;;;;28.54;39.71;92991.59;5090620;28;20211;-78
2023/08/18 09:47:50;;;;;;;8.45;7.85;;;;;;;28.87;41.26;92998.56;5101632;28;20228;-78
2023/08/18 09:50:19;;;;;;;8.55;7.60;;;;;;;28.70;39.96;92991.97;5090742;28;21035;-79
2023/08/18 09:52:48;;;;;;;7.75;7.15;;;;;;;28.84;39.18;92986.63;5077753;28;20217;-78
2023/08/18 09:55:15;;;;;;;8.27;7.68;;;;;;;29.17;39.68;92996.31;5070392;28;20187;-78
2023/08/18 09:57:55;;;;;;;8.57;7.97;;;;;;;29.15;39.39;92991.28;5080663;28;20242;-77
2023/08/18 10:00:23;;;;;;;9.38;8.65;;;;;;;28.82;39.09;92988.94;5089941;28;20210;-78
2023/08/18 10:02:51;;;;;;;12.55;7.38;;;;;;;29.28;38.78;92997.03;5090357;28;20225;-77
2023/08/18 10:05:16;;;;;;;10.82;8.35;;;;;;;29.12;38.37;92983.97;5089916;28;20208;-77
2023/08/18 10:07:42;;;;;;;8.05;7.63;;;;;;;29.11;38.14;92985.16;5090014;28;20226;-78
2023/08/18 10:10:08;;;;;;;8.95;8.20;;;;;;;29.14;38.62;92991.66;5090569;28;20686;-78
2023/08/18 10:12:33;;;;;;;8.57;7.97;;;;;;;29.23;38.17;92992.81;5092322;28;20312;-77
2023/08/18 10:15:00;;;;;;;8.88;8.05;;;;;;;29.28;38.64;92979.00;5102701;28;20211;-77
2023/08/18 10:17:26;;;;;;;7.55;7.05;;;;;;;29.13;40.75;92971.31;5089771;28;20229;-78
2023/08/18 10:19:56;;;;;;;9.25;8.40;;;;;;;29.57;37.97;92985.13;5090031;28;20990;-78
2023/08/18 10:22:24;;;;;;;8.60;7.90;;;;;;;29.25;37.15;92981.69;5091002;28;20215;-78
2023/08/18 10:24:51;;;;;;;8.15;7.43;;;;;;;29.41;38.33;92982.84;5089635;28;20207;-78
2023/08/18 10:27:29;;;;;;;9.57;8.18;;;;;;;29.54;37.73;92986.63;5089542;28;20224;-78
2023/08/18 10:30:07;;;;;;;9.02;8.10;;;;;;;29.84;37.42;92985.47;5083915;28;20275;-78
2023/08/18 10:32:32;;;;;;;7.75;7.07;;;;;;;30.09;37.36;92991.56;5089762;28;20235;-77
2023/08/18 10:35:23;;;;;;;8.63;8.13;;;;;;;29.90;37.33;92994.69;5089838;28;20184;-78
2023/08/18 10:37:55;;;;;;;8.77;8.05;;;;;;;30.02;37.15;92988.88;5089370;28;20242;-78
2023/08/18 10:40:23;;;;;;;7.45;6.85;;;;;;;30.02;36.30;92986.19;5090147;28;20184;-78
2023/08/18 10:42:51;;;;;;;7.93;7.30;;;;;;;29.84;37.04;92986.22;5089245;28;20223;-79
2023/08/18 10:45:26;;;;;;;8.55;7.93;;;;;;;29.84;37.86;92988.16;5089501;28;20263;-79
2023/08/18 10:47:52;;;;;;;8.40;7.43;;;;;;;29.65;38.31;92968.59;5089466;28;20230;-78
2023/08/18 10:50:19;;;;;;;8.75;8.05;;;;;;;29.91;37.16;92986.22;5090226;28;20240;-78
2023/08/18 10:52:45;;;;;;;8.60;7.97;;;;;;;29.96;38.07;92983.13;5089225;28;20224;-77
2023/08/18 10:55:10;;;;;;;9.68;9.00;;;;;;;30.27;36.20;92970.72;5089763;28;20188;-78
2023/08/18 10:57:37;;;;;;;7.85;7.35;;;;;;;30.27;36.88;92974.19;5088670;28;20294;-77
2023/08/18 11:00:10;;;;;;;9.35;8.50;;;;;;;30.30;36.60;92959.94;5089605;28;20985;-78
2023/08/18 11:02:36;;;;;;;8.63;7.88;;;;;;;30.46;36.20;92972.94;5095403;28;20300;-78
2023/08/18 11:05:04;;;;;;;9.43;8.38;;;;;;;30.46;36.74;92962.16;5095887;28;20216;-78
2023/08/18 11:07:30;;;;;;;8.27;7.68;;;;;;;30.33;36.90;92975.31;5089301;28;20236;-78
2023/08/18 11:09:55;;;;;;;9.63;8.48;;;;;;;30.18;37.06;92963.00;5122223;28;20191;-77
2023/08/18 11:12:21;;;;;;;8.05;7.50;;;;;;;30.13;37.32;92955.38;5097532;28;20223;-79
2023/08/18 11:14:46;;;;;;;9.27;8.20;;;;;;;30.13;37.91;92968.06;5095557;28;20184;-78
2023/08/18 11:17:11;;;;;;;8.30;7.80;;;;;;;30.29;37.29;92968.41;5093065;28;20297;-78
2023/08/18 11:19:37;;;;;;;8.70;7.60;;;;;;;30.51;36.12;92973.28;5093254;28;20198;-77
2023/08/18 11:22:02;;;;;;;9.05;8.25;;;;;;;30.15;36.72;92954.97;5092994;28;20296;-77
2023/08/18 11:24:28;;;;;;;9.05;8.35;;;;;;;29.84;37.08;92961.25;5093178;28;20295;-78